Time;durP1;ratioP1;P1;durP2;ratioP2;P2;SDS_P1;SDS_P2;PMS_P1;PMS_P2;Temp;Humidity;BMP_temperature;BMP_pressure;BME280_temperature;BME280_humidity;BME280_pressure;Samples;Min_cycle;Max_cycle;Signal;HPM_P1;HPM_P2
2021/06/15 04:11:54;;;;;;;0.30;0.30;;;16.90;99.90;;;;;;5290261;23;20225;-75
2021/06/15 04:14:22;;;;;;;0.40;0.40;;;17.00;99.90;;;;;;4935833;29;20396;-75
2021/06/15 04:16:52;;;;;;;0.40;0.40;;;17.10;99.90;;;;;;4935473;29;20206;-76
2021/06/15 04:19:25;;;;;;;0.30;0.30;;;17.10;99.90;;;;;;4935981;29;20202;-76
2021/06/15 04:21:55;;;;;;;0.40;0.40;;;17.10;99.90;;;;;;4935159;29;20281;-76
2021/06/15 04:24:25;;;;;;;0.40;0.40;;;17.20;99.90;;;;;;4938227;29;20201;-75
2021/06/15 04:26:58;;;;;;;0.30;0.30;;;17.30;99.90;;;;;;4937794;29;20202;-75
2021/06/15 04:29:27;;;;;;;0.50;0.50;;;17.30;99.90;;;;;;4933116;29;20226;-75
2021/06/15 04:31:59;;;;;;;0.30;0.30;;;17.40;99.90;;;;;;4943348;29;20765;-75
2021/06/15 04:34:28;;;;;;;0.30;0.30;;;17.50;99.90;;;;;;4935631;29;20224;-75
2021/06/15 04:36:59;;;;;;;0.30;0.30;;;17.80;99.90;;;;;;4935566;29;20206;-74
2021/06/15 04:39:32;;;;;;;0.30;0.30;;;17.70;99.90;;;;;;4935812;29;20205;-74
2021/06/15 04:42:05;;;;;;;0.30;0.30;;;17.80;99.90;;;;;;4935541;29;20233;-75
2021/06/15 04:44:36;;;;;;;0.40;0.40;;;17.80;99.90;;;;;;4934654;29;20213;-75
2021/06/15 04:47:12;;;;;;;0.30;0.30;;;17.90;99.90;;;;;;4936293;29;20214;-75
2021/06/15 04:49:54;;;;;;;0.30;0.30;;;19.50;99.90;;;;;;4937519;29;20221;-75
2021/06/15 04:52:25;;;;;;;0.30;0.30;;;18.00;99.90;;;;;;4937165;29;20229;-75
2021/06/15 04:54:54;;;;;;;0.20;0.20;;;18.20;99.90;;;;;;4936660;29;20209;-74
2021/06/15 04:57:28;;;;;;;0.30;0.30;;;18.10;99.90;;;;;;4935817;29;20233;-74
2021/06/15 04:59:59;;;;;;;0.30;0.30;;;18.30;99.90;;;;;;4936444;29;20210;-74
2021/06/15 05:02:30;;;;;;;0.25;0.25;;;;;;;;;;4935571;29;20674;-74
2021/06/15 05:04:58;;;;;;;0.20;0.20;;;18.50;99.90;;;;;;4935083;29;20206;-74
2021/06/15 05:07:27;;;;;;;0.20;0.20;;;;;;;;;;4935270;29;20655;-75
2021/06/15 05:09:56;;;;;;;0.30;0.30;;;18.70;99.90;;;;;;4936557;29;20229;-75
2021/06/15 05:12:30;;;;;;;0.30;0.30;;;18.90;99.90;;;;;;4934941;29;20238;-75
2021/06/15 05:15:02;;;;;;;0.20;0.20;;;18.90;99.90;;;;;;4936875;29;20242;-74
2021/06/15 05:17:31;;;;;;;0.30;0.30;;;19.00;99.90;;;;;;4940027;29;20252;-74
2021/06/15 05:20:00;;;;;;;0.30;0.30;;;19.20;99.90;;;;;;4940122;29;20206;-75
2021/06/15 05:22:31;;;;;;;0.30;0.30;;;19.20;99.90;;;;;;4940933;29;20257;-75
2021/06/15 05:25:03;;;;;;;0.20;0.20;;;19.20;99.90;;;;;;4940824;29;20205;-74
2021/06/15 05:27:34;;;;;;;0.20;0.20;;;19.40;99.90;;;;;;4940701;29;20210;-75
2021/06/15 05:30:05;;;;;;;0.20;0.20;;;20.60;99.90;;;;;;4941096;29;20229;-75
2021/06/15 05:32:42;;;;;;;0.20;0.20;;;;;;;;;;4941305;29;20249;-75
2021/06/15 05:35:12;;;;;;;0.30;0.30;;;19.70;99.90;;;;;;4940686;29;20210;-74
2021/06/15 05:37:41;;;;;;;0.25;0.25;;;19.80;99.90;;;;;;4940542;29;20239;-75
2021/06/15 05:40:11;;;;;;;0.30;0.30;;;19.90;99.60;;;;;;4940943;29;20198;-75
2021/06/15 05:42:40;;;;;;;0.20;0.20;;;20.00;99.90;;;;;;4940756;29;20663;-74
2021/06/15 05:45:10;;;;;;;0.20;0.20;;;20.10;99.20;;;;;;4940687;29;20281;-74
2021/06/15 05:47:38;;;;;;;0.30;0.30;;;20.10;99.00;;;;;;4940208;29;20209;-74
2021/06/15 05:50:07;;;;;;;0.20;0.20;;;20.20;98.70;;;;;;4940462;29;20226;-74
2021/06/15 05:52:36;;;;;;;0.30;0.30;;;20.30;99.10;;;;;;4940716;29;20210;-74
2021/06/15 05:55:05;;;;;;;0.20;0.20;;;20.80;99.40;;;;;;4940482;29;20214;-74
2021/06/15 05:57:34;;;;;;;0.20;0.20;;;20.30;99.20;;;;;;4940205;29;20273;-75
2021/06/15 06:00:04;;;;;;;0.20;0.20;;;20.50;99.10;;;;;;4940989;29;20214;-74
2021/06/15 06:02:33;;;;;;;0.20;0.20;;;20.60;99.40;;;;;;4940260;29;20233;-74
2021/06/15 06:08:06;;;;;;;0.20;0.20;;;20.80;98.80;;;;;;4939693;29;20210;-74
2021/06/15 06:10:36;;;;;;;0.20;0.20;;;21.10;98.60;;;;;;4939848;29;20281;-74
2021/06/15 06:13:05;;;;;;;0.30;0.30;;;21.00;98.90;;;;;;4939664;29;20210;-74
2021/06/15 06:15:36;;;;;;;0.20;0.20;;;21.20;97.90;;;;;;4939386;29;20237;-74
2021/06/15 06:18:08;;;;;;;0.20;0.20;;;21.20;98.10;;;;;;4939591;29;20206;-74
2021/06/15 06:20:37;;;;;;;0.20;0.20;;;21.30;97.10;;;;;;4939124;29;20285;-75
2021/06/15 06:23:06;;;;;;;0.30;0.30;;;21.30;97.40;;;;;;4939024;29;20213;-74
2021/06/15 06:25:34;;;;;;;0.20;0.20;;;;;;;;;;4938592;29;20265;-74
2021/06/15 06:28:03;;;;;;;0.20;0.20;;;21.50;96.90;;;;;;4938071;29;20492;-75
2021/06/15 06:30:32;;;;;;;0.20;0.20;;;21.60;97.50;;;;;;4938919;29;20718;-75
2021/06/15 06:33:01;;;;;;;0.20;0.20;;;21.70;96.60;;;;;;4938538;29;20206;-74
2021/06/15 06:35:31;;;;;;;0.20;0.20;;;;;;;;;;4938553;29;20694;-74
2021/06/15 06:37:58;;;;;;;0.30;0.30;;;21.80;96.30;;;;;;4938789;29;20202;-74
2021/06/15 06:40:27;;;;;;;0.20;0.20;;;;;;;;;;4938740;29;20509;-74
2021/06/15 06:43:00;;;;;;;0.20;0.20;;;22.00;95.80;;;;;;4938945;29;20746;-74
2021/06/15 06:45:32;;;;;;;0.20;0.20;;;;;;;;;;4939511;29;20634;-75
2021/06/15 06:48:03;;;;;;;0.20;0.20;;;22.10;95.50;;;;;;4939447;29;20205;-75
2021/06/15 06:50:32;;;;;;;0.20;0.20;;;;;;;;;;4939592;29;20261;-75
2021/06/15 06:53:00;;;;;;;0.20;0.20;;;22.30;96.30;;;;;;4939052;29;20202;-76
2021/06/15 06:55:29;;;;;;;0.20;0.20;;;22.30;95.20;;;;;;4939028;29;20312;-75
2021/06/15 06:57:57;;;;;;;0.30;0.30;;;22.90;95.60;;;;;;4938851;29;20234;-74
2021/06/15 07:00:25;;;;;;;0.20;0.20;;;22.30;99.90;;;;;;4938928;29;20679;-75
2021/06/15 07:02:53;;;;;;;0.20;0.20;;;22.30;96.00;;;;;;4939310;29;20206;-75
2021/06/15 07:05:23;;;;;;;0.20;0.20;;;22.60;95.30;;;;;;4938445;29;20209;-75
2021/06/15 07:07:52;;;;;;;0.20;0.20;;;22.60;95.60;;;;;;4938961;29;20206;-75
2021/06/15 07:10:20;;;;;;;0.20;0.20;;;22.50;99.90;;;;;;4938330;29;20210;-75
2021/06/15 07:12:48;;;;;;;0.20;0.20;;;22.60;95.40;;;;;;4938637;29;20225;-75
2021/06/15 07:15:17;;;;;;;0.30;0.30;;;22.70;94.80;;;;;;4938368;29;20202;-75
2021/06/15 07:17:45;;;;;;;0.20;0.20;;;22.90;95.30;;;;;;4938703;29;20214;-75
2021/06/15 07:20:14;;;;;;;0.20;0.20;;;22.90;99.90;;;;;;4939238;29;20265;-75
2021/06/15 07:22:43;;;;;;;0.20;0.20;;;22.90;94.30;;;;;;4939118;29;20209;-75
2021/06/15 07:25:12;;;;;;;0.20;0.20;;;23.10;94.90;;;;;;4937975;29;20335;-74
2021/06/15 07:27:40;;;;;;;0.20;0.20;;;23.10;95.30;;;;;;4938242;29;20623;-75
2021/06/15 07:30:09;;;;;;;0.15;0.15;;;23.30;95.00;;;;;;4937584;29;20210;-75
2021/06/15 07:32:37;;;;;;;0.10;0.10;;;23.40;94.90;;;;;;4937541;29;20226;-74
2021/06/15 07:35:06;;;;;;;0.20;0.20;;;23.50;95.10;;;;;;4937259;29;20242;-74
2021/06/15 07:37:33;;;;;;;0.20;0.20;;;23.70;94.70;;;;;;4937112;29;20206;-75
2021/06/15 07:40:04;;;;;;;0.20;0.20;;;23.80;99.90;;;;;;4938127;29;20201;-75
2021/06/15 07:42:32;;;;;;;0.20;0.20;;;23.90;94.10;;;;;;4938832;29;20277;-74
2021/06/15 07:45:00;;;;;;;0.10;0.10;;;;;;;;;;4938724;29;20747;-74
2021/06/15 07:47:28;;;;;;;0.20;0.20;;;24.00;92.90;;;;;;4938747;29;20624;-74
2021/06/15 07:50:11;;;;;;;0.20;0.20;;;23.90;99.70;;;;;;4938973;29;20202;-74
2021/06/15 07:52:39;;;;;;;0.10;0.10;;;23.80;93.60;;;;;;4937590;29;20261;-74
2021/06/15 07:55:09;;;;;;;0.20;0.20;;;23.90;93.00;;;;;;4937333;29;20339;-75
2021/06/15 07:57:39;;;;;;;0.20;0.20;;;23.80;92.90;;;;;;4936530;29;20206;-75
2021/06/15 08:00:09;;;;;;;0.20;0.20;;;23.80;93.30;;;;;;4936452;29;20210;-74
2021/06/15 08:02:37;;;;;;;0.10;0.10;;;23.80;92.60;;;;;;4935926;29;20233;-75
2021/06/15 08:05:06;;;;;;;0.20;0.20;;;24.00;91.90;;;;;;4936461;29;20818;-75
2021/06/15 08:07:50;;;;;;;0.20;0.20;;;24.10;91.50;;;;;;4937288;29;20718;-75
2021/06/15 08:10:20;;;;;;;0.20;0.20;;;24.20;98.60;;;;;;4935211;29;20202;-76
2021/06/15 08:12:48;;;;;;;0.17;0.17;;;24.20;91.60;;;;;;4935111;29;20230;-76
2021/06/15 08:15:17;;;;;;;0.10;0.10;;;24.30;91.70;;;;;;4935211;29;20293;-76
2021/06/15 08:17:45;;;;;;;0.10;0.10;;;24.20;91.60;;;;;;4934999;29;20683;-76
2021/06/15 08:20:15;;;;;;;0.10;0.10;;;24.60;98.00;;;;;;4935334;29;20217;-76
2021/06/15 08:22:43;;;;;;;0.10;0.10;;;24.30;91.00;;;;;;4935077;29;20241;-77
2021/06/15 08:25:12;;;;;;;0.10;0.10;;;24.50;91.50;;;;;;4934947;29;20792;-75
2021/06/15 08:27:41;;;;;;;0.13;0.13;;;24.70;91.30;;;;;;4934858;29;20210;-76
2021/06/15 08:30:13;;;;;;;0.10;0.10;;;24.50;94.30;;;;;;4934915;29;20667;-76
2021/06/15 08:32:41;;;;;;;0.20;0.20;;;24.80;90.50;;;;;;4934820;29;20785;-76
2021/06/15 08:35:10;;;;;;;0.10;0.10;;;24.90;90.70;;;;;;4934834;29;20237;-76
2021/06/15 08:37:38;;;;;;;0.20;0.20;;;24.80;89.40;;;;;;4934878;29;20257;-76
2021/06/15 08:40:08;;;;;;;0.20;0.20;;;24.70;90.40;;;;;;4934846;29;20213;-76
2021/06/15 08:42:37;;;;;;;0.10;0.10;;;24.90;90.20;;;;;;4934926;29;20257;-76
2021/06/15 08:45:09;;;;;;;0.17;0.17;;;25.20;99.90;;;;;;4934871;29;20257;-76
2021/06/15 08:47:40;;;;;;;0.15;0.15;;;25.10;99.90;;;;;;4934950;29;20214;-75
2021/06/15 08:50:10;;;;;;;0.10;0.10;;;25.10;99.90;;;;;;4934085;29;20751;-76
2021/06/15 08:52:38;;;;;;;0.10;0.10;;;25.00;99.90;;;;;;4934635;29;20718;-76
2021/06/15 08:55:11;;;;;;;0.10;0.10;;;25.20;99.90;;;;;;4934757;29;20210;-76
2021/06/15 08:57:40;;;;;;;0.10;0.10;;;25.40;89.70;;;;;;4934864;29;20210;-76
2021/06/15 09:00:11;;;;;;;0.20;0.20;;;25.80;89.80;;;;;;4934630;29;20202;-76
2021/06/15 09:02:44;;;;;;;0.10;0.10;;;25.80;87.30;;;;;;4934653;29;20617;-76
2021/06/15 09:05:17;;;;;;;0.10;0.10;;;25.90;88.00;;;;;;4934357;29;20749;-76
2021/06/15 09:08:00;;;;;;;0.10;0.10;;;26.20;90.00;;;;;;4934705;29;20706;-76
2021/06/15 09:10:29;;;;;;;0.10;0.10;;;26.20;86.30;;;;;;4934529;29;20237;-76
2021/06/15 09:12:57;;;;;;;0.10;0.10;;;26.40;85.60;;;;;;4934638;29;20281;-76
2021/06/15 09:15:27;;;;;;;0.10;0.10;;;26.50;84.70;;;;;;4934206;29;20278;-76
2021/06/15 09:17:55;;;;;;;0.10;0.10;;;26.60;83.40;;;;;;4934719;29;20206;-76
2021/06/15 09:20:26;;;;;;;0.10;0.10;;;26.80;95.00;;;;;;4934323;29;20210;-76
2021/06/15 09:23:03;;;;;;;0.10;0.10;;;26.60;95.90;;;;;;4934642;29;20234;-76
2021/06/15 09:25:32;;;;;;;0.10;0.10;;;26.60;96.10;;;;;;4934323;29;20706;-76
2021/06/15 09:28:15;;;;;;;0.10;0.10;;;26.60;95.80;;;;;;4934365;29;20202;-76
2021/06/15 09:30:56;;;;;;;0.10;0.10;;;26.60;95.80;;;;;;4934587;29;20646;-76
2021/06/15 09:33:37;;;;;;;0.10;0.10;;;26.70;94.50;;;;;;4934468;29;20238;-76
2021/06/15 09:36:06;;;;;;;0.10;0.10;;;26.70;93.80;;;;;;4934189;29;20297;-77
2021/06/15 09:38:35;;;;;;;0.10;0.10;;;26.20;81.60;;;;;;4934274;29;20261;-76
2021/06/15 09:41:03;;;;;;;0.10;0.10;;;26.50;81.60;;;;;;4934459;29;20230;-76
2021/06/15 09:43:31;;;;;;;0.10;0.10;;;26.40;81.70;;;;;;4934395;29;20199;-76
2021/06/15 09:46:00;;;;;;;0.20;0.20;;;26.40;80.70;;;;;;4934193;29;20206;-76
2021/06/15 09:48:32;;;;;;;0.10;0.10;;;26.40;82.20;;;;;;4934182;29;20236;-76
2021/06/15 09:51:02;;;;;;;0.10;0.10;;;26.50;80.00;;;;;;4934142;29;20261;-76
2021/06/15 09:53:31;;;;;;;0.10;0.10;;;26.60;80.50;;;;;;4934104;29;20261;-75
2021/06/15 09:56:01;;;;;;;0.10;0.10;;;26.50;79.10;;;;;;4934450;29;20206;-76
2021/06/15 09:58:43;;;;;;;0.10;0.10;;;26.60;77.40;;;;;;4934290;29;20210;-76
2021/06/15 10:01:32;;;;;;;0.10;0.10;;;26.60;75.80;;;;;;4934264;29;20309;-76
2021/06/15 10:04:11;;;;;;;0.10;0.10;;;26.80;74.20;;;;;;4937636;29;20628;-76
2021/06/15 10:06:40;;;;;;;0.10;0.10;;;26.90;73.90;;;;;;4937612;29;20260;-76
2021/06/15 10:09:09;;;;;;;0.10;0.10;;;26.90;88.20;;;;;;4937305;29;20261;-76
2021/06/15 10:11:37;;;;;;;0.10;0.10;;;27.10;87.40;;;;;;4937190;29;20237;-75
2021/06/15 10:14:06;;;;;;;0.10;0.10;;;27.10;75.20;;;;;;4937509;29;20210;-76
2021/06/15 10:16:35;;;;;;;0.10;0.10;;;26.80;75.70;;;;;;4937237;29;20266;-76
2021/06/15 10:19:03;;;;;;;0.10;0.10;;;26.60;76.30;;;;;;4937308;29;20269;-76
2021/06/15 10:21:34;;;;;;;0.10;0.10;;;26.70;74.70;;;;;;4937245;29;20260;-76
2021/06/15 10:24:04;;;;;;;0.10;0.10;;;26.80;75.70;;;;;;4937649;29;20202;-75
2021/06/15 10:26:32;;;;;;;0.10;0.10;;;26.70;76.30;;;;;;4936910;29;20740;-75
2021/06/15 10:29:01;;;;;;;0.10;0.10;;;26.80;75.70;;;;;;4937268;29;20206;-75
2021/06/15 10:31:31;;;;;;;0.10;0.10;;;26.60;75.90;;;;;;4936924;29;20225;-75
2021/06/15 10:34:00;;;;;;;0.10;0.10;;;26.60;76.10;;;;;;4936843;29;20226;-76
2021/06/15 10:36:40;;;;;;;0.10;0.10;;;26.90;75.40;;;;;;4936810;29;20202;-76
2021/06/15 10:39:11;;;;;;;0.10;0.10;;;27.10;76.20;;;;;;4937251;29;20205;-75
2021/06/15 10:41:39;;;;;;;0.10;0.10;;;27.10;73.20;;;;;;4937065;29;20281;-75
2021/06/15 10:44:09;;;;;;;0.10;0.10;;;27.00;74.50;;;;;;4936791;29;20288;-75
2021/06/15 10:46:39;;;;;;;0.10;0.10;;;27.00;73.70;;;;;;4936572;29;20206;-75
2021/06/15 10:49:11;;;;;;;0.10;0.10;;;27.00;76.00;;;;;;4936814;29;20210;-75
2021/06/15 10:51:54;;;;;;;0.10;0.10;;;27.10;74.60;;;;;;4936686;29;20221;-75
2021/06/15 10:54:35;;;;;;;0.10;0.10;;;27.20;73.30;;;;;;4936946;29;20714;-75
2021/06/15 10:57:22;;;;;;;0.10;0.10;;;27.20;71.70;;;;;;4936765;29;20210;-75
2021/06/15 11:00:07;;;;;;;0.10;0.10;;;27.20;72.60;;;;;;4936947;29;20202;-75
2021/06/15 11:02:35;;;;;;;0.10;0.10;;;27.20;71.00;;;;;;4936419;29;20270;-75
2021/06/15 11:05:38;;;;;;;0.17;0.17;;;27.20;70.40;;;;;;4936480;29;20214;-75
2021/06/15 11:08:18;;;;;;;0.10;0.10;;;;;;;;;;4936237;29;20285;-75
2021/06/15 11:10:48;;;;;;;0.10;0.10;;;27.30;99.90;;;;;;4936032;29;20230;-75
2021/06/15 11:13:17;;;;;;;0.10;0.10;;;27.50;69.40;;;;;;4935823;29;20222;-75
2021/06/15 11:15:57;;;;;;;0.10;0.10;;;27.70;67.80;;;;;;4935808;29;20206;-75
2021/06/15 11:18:25;;;;;;;0.10;0.10;;;27.70;66.20;;;;;;4936051;29;20221;-75
2021/06/15 11:20:55;;;;;;;0.10;0.10;;;27.70;67.50;;;;;;4936341;29;20254;-75
2021/06/15 11:23:29;;;;;;;0.10;0.10;;;27.50;69.70;;;;;;4936240;29;20234;-75
2021/06/15 11:26:05;;;;;;;0.10;0.10;;;27.60;68.50;;;;;;4936112;29;20202;-75
2021/06/15 11:28:40;;;;;;;0.10;0.10;;;27.50;69.40;;;;;;4936018;29;20206;-75
2021/06/15 11:31:32;;;;;;;0.10;0.10;;;27.60;68.90;;;;;;4936306;29;20232;-75
2021/06/15 11:34:17;;;;;;;0.10;0.10;;;27.90;67.10;;;;;;4935926;29;20261;-75
2021/06/15 11:36:54;;;;;;;0.10;0.10;;;28.10;68.30;;;;;;4935725;29;20206;-75
2021/06/15 11:39:34;;;;;;;0.10;0.10;;;28.30;67.80;;;;;;4936061;29;20191;-75
2021/06/15 11:42:19;;;;;;;0.10;0.10;;;28.50;66.90;;;;;;4936198;29;20226;-75
2021/06/15 11:44:51;;;;;;;0.10;0.10;;;28.70;66.70;;;;;;4935732;29;20253;-75
2021/06/15 11:47:31;;;;;;;0.10;0.10;;;28.90;68.70;;;;;;4935529;29;20244;-75
2021/06/15 11:50:08;;;;;;;0.10;0.10;;;29.20;66.60;;;;;;4935728;29;20284;-75
2021/06/15 11:52:39;;;;;;;0.10;0.10;;;29.00;68.40;;;;;;4935732;29;20269;-75
2021/06/15 11:55:09;;;;;;;0.10;0.10;;;29.20;65.40;;;;;;4935431;29;20687;-75
2021/06/15 11:57:39;;;;;;;0.10;0.10;;;28.70;66.50;;;;;;4935543;29;20210;-75
2021/06/15 12:00:13;;;;;;;0.10;0.10;;;28.90;67.60;;;;;;4935376;29;20919;-75
2021/06/15 12:02:41;;;;;;;0.10;0.10;;;29.20;66.90;;;;;;4935609;29;20264;-75
2021/06/15 12:05:12;;;;;;;0.10;0.10;;;29.40;65.90;;;;;;4935342;29;20245;-75
2021/06/15 12:07:43;;;;;;;0.10;0.10;;;28.90;66.60;;;;;;4935614;29;20210;-75
2021/06/15 12:10:14;;;;;;;0.10;0.10;;;28.90;66.90;;;;;;4935140;29;20214;-75
2021/06/15 12:12:56;;;;;;;0.10;0.10;;;28.90;67.20;;;;;;4935188;29;20258;-76
2021/06/15 12:15:26;;;;;;;0.10;0.10;;;29.10;66.60;;;;;;4934838;29;20671;-75
2021/06/15 12:17:54;;;;;;;0.10;0.10;;;29.20;66.60;;;;;;4935131;29;20213;-75
2021/06/15 12:20:28;;;;;;;0.10;0.10;;;29.40;64.10;;;;;;4935055;29;20209;-75
2021/06/15 12:22:57;;;;;;;0.10;0.10;;;29.30;64.30;;;;;;4935059;29;20245;-75
2021/06/15 12:25:31;;;;;;;0.10;0.10;;;29.20;65.40;;;;;;4934263;29;20584;-75
2021/06/15 12:28:13;;;;;;;0.10;0.10;;;28.80;65.40;;;;;;4935215;29;20221;-75
2021/06/15 12:30:41;;;;;;;0.10;0.10;;;29.10;65.90;;;;;;4934820;29;20647;-75
2021/06/15 12:33:09;;;;;;;0.10;0.10;;;29.20;64.50;;;;;;4934886;29;20216;-75
2021/06/15 12:35:38;;;;;;;0.10;0.10;;;29.50;63.00;;;;;;4934586;29;20237;-76
2021/06/15 12:38:15;;;;;;;0.10;0.10;;;30.20;61.30;;;;;;4935094;29;20209;-75
2021/06/15 12:40:45;;;;;;;0.10;0.10;;;30.60;61.20;;;;;;4934779;29;20225;-75
2021/06/15 12:43:13;;;;;;;0.10;0.10;;;30.70;59.20;;;;;;4934918;29;20198;-75
2021/06/15 12:45:41;;;;;;;0.10;0.10;;;30.80;59.40;;;;;;4934588;29;20205;-75
2021/06/15 12:48:23;;;;;;;0.10;0.10;;;30.50;60.80;;;;;;4934889;29;20205;-75
2021/06/15 12:51:08;;;;;;;0.10;0.10;;;30.40;60.70;;;;;;4934611;29;20703;-75
2021/06/15 12:53:40;;;;;;;0.10;0.10;;;29.70;60.40;;;;;;4934732;29;20226;-76
2021/06/15 12:56:22;;;;;;;0.10;0.10;;;29.80;60.60;;;;;;4934496;29;20209;-75
2021/06/15 12:58:53;;;;;;;0.10;0.10;;;29.50;61.50;;;;;;4931771;29;20206;-75
2021/06/15 13:01:26;;;;;;;0.10;0.10;;;29.30;62.40;;;;;;4927105;29;20363;-75
2021/06/15 13:03:55;;;;;;;0.10;0.10;;;29.40;60.80;;;;;;4934762;29;20206;-75
2021/06/15 13:06:25;;;;;;;0.10;0.10;;;29.30;61.80;;;;;;4931682;29;20245;-74
2021/06/15 13:08:54;;;;;;;0.10;0.10;;;29.50;61.30;;;;;;4925109;29;20258;-74
2021/06/15 13:11:24;;;;;;;0.10;0.10;;;29.60;61.60;;;;;;4924273;29;20234;-75
2021/06/15 13:13:57;;;;;;;0.10;0.10;;;29.50;61.80;;;;;;4924579;29;20662;-75
2021/06/15 13:16:34;;;;;;;0.10;0.10;;;29.40;62.50;;;;;;4917800;29;20203;-75
2021/06/15 13:19:04;;;;;;;0.10;0.10;;;28.90;62.80;;;;;;4915653;29;20574;-74
2021/06/15 13:21:50;;;;;;;0.10;0.10;;;28.70;62.50;;;;;;4918443;29;20210;-75
2021/06/15 13:24:19;;;;;;;0.10;0.10;;;28.80;62.70;;;;;;4915707;29;20207;-76
2021/06/15 13:26:51;;;;;;;0.10;0.10;;;28.90;64.00;;;;;;4923662;29;20678;-75
2021/06/15 13:29:29;;;;;;;0.10;0.10;;;28.80;62.90;;;;;;4934415;29;20514;-75
2021/06/15 13:32:19;;;;;;;0.10;0.10;;;28.60;62.40;;;;;;4932897;29;20300;-75
2021/06/15 13:35:05;;;;;;;0.10;0.10;;;28.80;60.80;;;;;;4918924;29;20226;-75
2021/06/15 13:37:36;;;;;;;0.10;0.10;;;28.60;60.80;;;;;;4931255;29;20241;-75
2021/06/15 13:40:09;;;;;;;0.10;0.10;;;28.70;60.90;;;;;;4929975;29;20199;-76
2021/06/15 13:42:38;;;;;;;0.10;0.10;;;28.80;61.00;;;;;;4918916;29;20206;-76
2021/06/15 13:45:10;;;;;;;0.10;0.10;;;29.20;63.20;;;;;;4933639;29;20198;-76
2021/06/15 13:47:46;;;;;;;0.10;0.10;;;29.10;60.50;;;;;;4918882;29;20206;-76
2021/06/15 13:50:15;;;;;;;0.10;0.10;;;29.10;77.30;;;;;;4919948;29;20290;-74
2021/06/15 13:52:46;;;;;;;0.10;0.10;;;29.20;63.10;;;;;;4938014;29;20214;-71
2021/06/15 13:55:16;;;;;;;0.10;0.10;;;28.90;63.20;;;;;;4938331;29;20233;-73
2021/06/15 13:57:45;;;;;;;0.10;0.10;;;29.00;62.10;;;;;;4937833;29;20210;-72
2021/06/15 14:00:16;;;;;;;0.05;0.05;;;29.40;78.80;;;;;;4934376;29;20199;-71
2021/06/15 14:02:44;;;;;;;0.10;0.10;;;29.40;64.10;;;;;;4917746;29;20202;-72
2021/06/15 14:05:13;;;;;;;0.10;0.10;;;29.40;63.00;;;;;;4916742;29;20202;-72
2021/06/15 14:07:41;;;;;;;0.10;0.10;;;29.40;64.40;;;;;;4918314;29;20207;-72
2021/06/15 14:10:11;;;;;;;0.10;0.10;;;29.40;63.90;;;;;;4919271;29;20265;-71
2021/06/15 14:12:42;;;;;;;0.10;0.10;;;29.20;62.90;;;;;;4919002;29;20206;-72
2021/06/15 14:15:12;;;;;;;0.10;0.10;;;29.30;64.30;;;;;;4918034;29;20311;-71
2021/06/15 14:17:40;;;;;;;0.10;0.10;;;29.30;64.20;;;;;;4931555;29;20205;-78
2021/06/15 14:20:10;;;;;;;0.10;0.10;;;29.10;64.40;;;;;;4924180;29;20207;-83
2021/06/15 14:22:39;;;;;;;0.10;0.10;;;29.00;64.40;;;;;;4921709;29;20258;-81
2021/06/15 14:25:09;;;;;;;0.13;0.13;;;29.10;65.30;;;;;;4931821;29;20265;-80
2021/06/15 14:27:38;;;;;;;0.10;0.10;;;29.20;66.20;;;;;;4929227;29;20202;-78
2021/06/15 14:30:11;;;;;;;0.10;0.10;;;29.20;65.30;;;;;;4927083;29;20203;-74
2021/06/15 14:32:40;;;;;;;0.10;0.10;;;28.90;64.30;;;;;;4932665;29;20664;-72
2021/06/15 14:35:10;;;;;;;0.10;0.10;;;29.10;66.30;;;;;;4935895;29;20225;-79
2021/06/15 14:37:40;;;;;;;0.10;0.10;;;29.30;65.60;;;;;;4928828;29;20206;-75
2021/06/15 14:40:12;;;;;;;0.10;0.10;;;29.30;65.40;;;;;;4933932;29;20253;-72
2021/06/15 14:42:41;;;;;;;0.10;0.10;;;28.90;65.30;;;;;;4910066;29;20208;-72
2021/06/15 14:45:14;;;;;;;0.10;0.10;;;29.10;66.60;;;;;;4926394;29;20254;-71
2021/06/15 14:47:42;;;;;;;0.10;0.10;;;29.10;66.50;;;;;;4924660;29;20281;-72
2021/06/15 14:50:10;;;;;;;0.10;0.10;;;28.90;65.20;;;;;;4927230;29;20253;-71
2021/06/15 14:52:38;;;;;;;0.10;0.10;;;29.00;66.60;;;;;;4925328;29;20612;-72
2021/06/15 14:55:08;;;;;;;0.10;0.10;;;29.10;66.50;;;;;;4929546;29;20277;-71
2021/06/15 14:57:38;;;;;;;0.10;0.10;;;28.70;66.70;;;;;;4931958;29;20206;-71
2021/06/15 15:00:08;;;;;;;0.10;0.10;;;28.70;67.40;;;;;;4927675;29;20210;-71
2021/06/15 15:02:40;;;;;;;0.10;0.10;;;28.70;67.40;;;;;;4927590;29;20599;-71
2021/06/15 15:05:09;;;;;;;0.10;0.10;;;28.60;67.60;;;;;;4934173;29;20292;-71
2021/06/15 15:07:37;;;;;;;0.10;0.10;;;28.50;68.00;;;;;;4916315;29;20218;-71
2021/06/15 15:10:06;;;;;;;0.10;0.10;;;28.30;68.70;;;;;;4916625;29;20210;-71
2021/06/15 15:12:39;;;;;;;0.10;0.10;;;28.20;67.90;;;;;;4929873;29;20206;-71
2021/06/15 15:15:08;;;;;;;0.10;0.10;;;28.00;69.60;;;;;;4924629;29;20695;-71
2021/06/15 15:17:37;;;;;;;0.10;0.10;;;27.90;69.90;;;;;;4919200;29;20245;-71
2021/06/15 15:20:08;;;;;;;0.10;0.10;;;28.10;69.70;;;;;;4922337;29;20250;-70
2021/06/15 15:22:38;;;;;;;0.10;0.10;;;28.10;69.80;;;;;;4924332;29;20210;-72
2021/06/15 15:25:07;;;;;;;0.10;0.10;;;27.90;70.20;;;;;;4925962;29;20261;-71
2021/06/15 15:27:37;;;;;;;0.10;0.10;;;27.80;70.80;;;;;;4926947;29;20202;-70
2021/06/15 15:30:08;;;;;;;0.10;0.10;;;27.90;70.30;;;;;;4926165;29;20611;-70
2021/06/15 15:32:35;;;;;;;0.10;0.10;;;28.10;70.30;;;;;;4924541;29;20207;-71
2021/06/15 15:35:04;;;;;;;0.10;0.10;;;27.80;70.00;;;;;;4926492;29;20639;-70
2021/06/15 15:37:34;;;;;;;0.10;0.10;;;27.80;70.30;;;;;;4927105;29;20212;-70
2021/06/15 15:40:02;;;;;;;0.10;0.10;;;27.80;70.20;;;;;;4927407;29;20437;-70
2021/06/15 15:42:31;;;;;;;0.10;0.10;;;27.80;68.90;;;;;;4925132;29;20554;-70
2021/06/15 15:45:03;;;;;;;0.10;0.10;;;27.70;68.90;;;;;;4926185;29;20229;-71
2021/06/15 15:47:32;;;;;;;0.10;0.10;;;27.90;69.80;;;;;;4923969;29;20226;-70
2021/06/15 15:50:00;;;;;;;0.10;0.10;;;28.00;69.20;;;;;;4923783;29;20229;-71
2021/06/15 15:52:28;;;;;;;0.10;0.10;;;27.80;66.90;;;;;;4925317;29;20222;-71
2021/06/15 15:54:57;;;;;;;0.10;0.10;;;27.80;69.20;;;;;;4924292;29;20207;-70
2021/06/15 15:57:26;;;;;;;0.10;0.10;;;27.70;68.10;;;;;;4925499;29;20206;-71
2021/06/15 15:59:54;;;;;;;0.10;0.10;;;27.70;68.00;;;;;;4931512;29;20256;-70
2021/06/15 16:02:22;;;;;;;0.10;0.10;;;27.80;68.20;;;;;;4935168;29;20245;-70
2021/06/15 16:04:50;;;;;;;0.10;0.10;;;27.90;66.20;;;;;;4935170;29;20202;-70
2021/06/15 16:07:17;;;;;;;0.32;0.32;;;28.20;68.90;;;;;;4934809;29;20633;-71
2021/06/15 16:09:45;;;;;;;0.20;0.20;;;28.40;68.10;;;;;;4934896;29;20213;-71
2021/06/15 16:12:16;;;;;;;0.10;0.10;;;28.70;66.20;;;;;;4934256;29;20242;-73
2021/06/15 16:14:45;;;;;;;0.10;0.10;;;29.10;65.70;;;;;;4934282;29;20766;-73
2021/06/15 16:17:13;;;;;;;0.10;0.10;;;29.00;64.20;;;;;;4934029;29;20289;-73
2021/06/15 16:19:41;;;;;;;0.10;0.10;;;28.90;65.80;;;;;;4934043;29;20206;-73
2021/06/15 16:22:09;;;;;;;0.10;0.10;;;28.70;64.50;;;;;;4934152;29;20257;-72
2021/06/15 16:24:37;;;;;;;0.10;0.10;;;28.50;64.50;;;;;;4933912;29;20206;-72
2021/06/15 16:27:06;;;;;;;0.10;0.10;;;28.00;64.50;;;;;;4933847;29;20206;-72
2021/06/15 16:29:35;;;;;;;0.10;0.10;;;28.00;65.60;;;;;;4934255;29;20209;-71
2021/06/15 16:32:04;;;;;;;0.10;0.10;;;27.90;65.70;;;;;;4934135;29;20703;-71
2021/06/15 16:34:32;;;;;;;0.10;0.10;;;27.90;67.50;;;;;;4938889;23;60871;-75
2021/06/15 16:37:00;;;;;;;0.10;0.10;;;28.10;66.30;;;;;;4902349;29;20337;-75
2021/06/15 16:39:28;;;;;;;0.10;0.10;;;28.00;67.60;;;;;;4915987;29;20202;-75
2021/06/15 16:41:56;;;;;;;0.10;0.10;;;28.10;68.40;;;;;;4915590;29;20227;-75
2021/06/15 16:44:24;;;;;;;0.10;0.10;;;28.20;68.30;;;;;;4915501;29;20725;-75
2021/06/15 16:46:53;;;;;;;0.10;0.10;;;28.10;68.20;;;;;;4915432;29;20262;-75
2021/06/15 16:49:22;;;;;;;0.20;0.20;;;28.20;68.30;;;;;;4899113;29;20210;-75
2021/06/15 16:51:50;;;;;;;0.10;0.10;;;28.10;68.20;;;;;;4896590;29;20211;-75
2021/06/15 16:54:18;;;;;;;0.20;0.20;;;27.80;69.30;;;;;;4896670;29;20283;-74
2021/06/15 16:56:46;;;;;;;0.10;0.10;;;27.80;69.60;;;;;;4896701;29;20227;-77
2021/06/15 16:59:14;;;;;;;0.10;0.10;;;27.90;70.30;;;;;;4896924;29;20203;-75
2021/06/15 17:01:42;;;;;;;0.10;0.10;;;27.60;70.00;;;;;;4896810;29;20271;-82
2021/06/15 17:04:11;;;;;;;0.10;0.10;;;27.80;70.20;;;;;;4913827;29;20601;-77
2021/06/15 17:06:39;;;;;;;0.10;0.10;;;27.80;70.80;;;;;;4915384;29;20655;-76
2021/06/15 17:09:07;;;;;;;0.20;0.20;;;27.70;69.90;;;;;;4915766;29;20817;-77
2021/06/15 17:11:35;;;;;;;0.10;0.10;;;27.60;69.60;;;;;;4916783;29;20231;-77
2021/06/15 17:14:03;;;;;;;0.10;0.10;;;27.80;70.20;;;;;;4922463;29;20210;-80
2021/06/15 17:16:31;;;;;;;0.20;0.20;;;27.60;68.70;;;;;;4919770;29;20219;-77
2021/06/15 17:19:00;;;;;;;0.20;0.20;;;27.70;69.20;;;;;;4920194;29;20214;-78
2021/06/15 17:21:32;;;;;;;0.50;0.50;;;27.60;68.00;;;;;;4920859;29;20210;-78
2021/06/15 17:24:01;;;;;;;0.50;0.50;;;28.20;85.10;;;;;;4919409;29;20253;-76